createdAt,value
2018-12-17T00:02:15.901Z,0.60
2018-12-17T00:04:42.897Z,0.40
2018-12-17T00:07:09.877Z,0.30
2018-12-17T00:09:36.894Z,0.20
2018-12-17T00:12:03.896Z,0.10
2018-12-17T00:14:30.887Z,0.00
2018-12-17T00:16:57.998Z,0.00
2018-12-17T00:19:24.959Z,0.00
2018-12-17T00:21:52.019Z,0.10
2018-12-17T00:24:19.016Z,0.20
2018-12-17T00:26:45.985Z,0.20
2018-12-17T00:29:12.990Z,0.00
2018-12-17T00:31:39.964Z,-0.10
2018-12-17T00:34:06.963Z,-0.10
2018-12-17T00:36:33.970Z,-0.10
2018-12-17T00:39:00.965Z,-0.20
2018-12-17T00:41:27.982Z,-0.20
2018-12-17T00:43:54.983Z,-0.30
2018-12-17T00:46:21.973Z,-0.40
2018-12-17T00:48:48.994Z,-0.40
2018-12-17T00:51:16.019Z,-0.40
2018-12-17T00:53:43.006Z,-0.40
2018-12-17T00:56:09.997Z,-0.50
2018-12-17T00:58:37.013Z,-0.40
2018-12-17T01:01:04.027Z,-0.40
2018-12-17T01:03:31.030Z,-0.50
2018-12-17T01:05:58.020Z,-0.40
2018-12-17T01:08:25.353Z,-0.50
2018-12-17T01:10:52.377Z,-0.40
2018-12-17T01:13:19.362Z,-0.40
2018-12-17T01:15:46.355Z,-0.50
2018-12-17T01:18:13.435Z,-0.50
2018-12-17T01:20:40.437Z,-0.40
2018-12-17T01:23:07.519Z,-0.30
2018-12-17T01:25:34.531Z,-0.10
2018-12-17T01:28:01.503Z,0.00
2018-12-17T01:30:28.499Z,0.10
2018-12-17T01:32:55.498Z,0.30
2018-12-17T01:35:22.479Z,0.40
2018-12-17T01:37:49.473Z,0.50
2018-12-17T01:40:16.461Z,0.50
2018-12-17T01:42:43.470Z,0.60
2018-12-17T01:45:10.497Z,0.70
2018-12-17T01:47:37.464Z,0.70
2018-12-17T01:50:04.453Z,0.70
2018-12-17T01:52:31.439Z,0.80
2018-12-17T01:54:58.437Z,0.80
2018-12-17T01:57:25.440Z,0.90
2018-12-17T01:59:53.040Z,0.90
2018-12-17T02:02:20.060Z,1.00
2018-12-17T02:04:47.066Z,1.00
2018-12-17T02:07:15.279Z,1.00
2018-12-17T02:09:42.464Z,1.10
2018-12-17T02:12:09.448Z,1.30
2018-12-17T02:14:36.440Z,1.20
2018-12-17T02:17:03.634Z,1.10
2018-12-17T02:19:30.623Z,1.10
2018-12-17T02:21:57.626Z,1.10
2018-12-17T02:24:24.606Z,1.00
2018-12-17T02:26:51.586Z,1.00
2018-12-17T02:29:18.570Z,0.90
2018-12-17T02:31:45.561Z,0.80
2018-12-17T02:34:12.619Z,0.70
2018-12-17T02:36:39.613Z,0.60
2018-12-17T02:39:06.900Z,0.50
2018-12-17T02:41:33.915Z,0.50
2018-12-17T02:44:01.193Z,0.50
2018-12-17T02:46:28.210Z,0.40
2018-12-17T02:48:55.201Z,0.30
2018-12-17T02:51:22.221Z,0.40
2018-12-17T02:53:49.279Z,0.30
2018-12-17T02:56:16.266Z,0.40
2018-12-17T02:58:44.126Z,0.30
2018-12-17T03:01:11.422Z,0.20
2018-12-17T03:03:38.417Z,0.20
2018-12-17T03:06:05.435Z,0.10
2018-12-17T03:08:32.458Z,0.10
2018-12-17T03:10:59.438Z,0.00
2018-12-17T03:13:26.445Z,0.00
2018-12-17T03:15:53.423Z,0.00
2018-12-17T03:18:20.988Z,-0.20
2018-12-17T03:20:48.012Z,-0.30
2018-12-17T03:23:15.011Z,-0.30
2018-12-17T03:25:42.009Z,-0.40
2018-12-17T03:28:09.003Z,-0.50
2018-12-17T03:30:35.985Z,-0.50
2018-12-17T03:33:02.974Z,-0.40
2018-12-17T03:35:30.065Z,-0.40
2018-12-17T03:37:57.051Z,-0.20
2018-12-17T03:40:24.059Z,-0.10
2018-12-17T03:42:51.062Z,0.00
2018-12-17T03:45:18.077Z,-0.20
2018-12-17T03:47:45.114Z,-0.40
2018-12-17T03:50:12.242Z,-0.50
2018-12-17T03:52:39.239Z,-0.60
2018-12-17T03:55:06.239Z,-0.70
2018-12-17T03:57:33.229Z,-0.70
2018-12-17T04:00:00.267Z,-0.70
2018-12-17T04:02:27.244Z,-0.70
2018-12-17T04:04:54.470Z,-0.70
2018-12-17T04:07:21.476Z,-0.60
2018-12-17T04:09:48.810Z,-0.60
2018-12-17T04:12:15.801Z,-0.60
2018-12-17T04:14:42.806Z,-0.40
2018-12-17T04:17:09.802Z,-0.30
2018-12-17T04:19:36.788Z,-0.30
2018-12-17T04:22:03.773Z,-0.30
2018-12-17T04:24:30.749Z,-0.40
2018-12-17T04:26:57.745Z,-0.40
2018-12-17T04:29:25.057Z,-0.50
2018-12-17T04:31:52.046Z,-0.50
2018-12-17T04:34:19.072Z,-0.40
2018-12-17T04:36:46.077Z,-0.40
2018-12-17T04:39:13.057Z,-0.50
2018-12-17T04:41:40.114Z,-0.50
2018-12-17T04:44:07.103Z,-0.30
2018-12-17T04:46:34.085Z,-0.40
2018-12-17T04:49:01.081Z,-0.50
2018-12-17T04:51:28.141Z,-0.50
2018-12-17T04:53:55.121Z,-0.70
2018-12-17T04:56:22.122Z,-0.70
2018-12-17T04:58:49.095Z,-0.60
2018-12-17T05:01:16.082Z,-0.50
2018-12-17T05:03:43.140Z,-0.40
2018-12-17T05:06:10.119Z,-0.30
2018-12-17T05:08:37.112Z,-0.20
2018-12-17T05:11:04.184Z,0.00
2018-12-17T05:13:31.161Z,0.00
2018-12-17T05:15:58.163Z,0.00
2018-12-17T05:18:25.160Z,-0.10
2018-12-17T05:20:52.252Z,-0.10
2018-12-17T05:23:19.254Z,-0.10
2018-12-17T05:25:46.247Z,-0.10
2018-12-17T05:28:13.249Z,-0.10
2018-12-17T05:30:40.263Z,-0.20
2018-12-17T05:33:07.284Z,-0.20
2018-12-17T05:35:34.283Z,0.50
2018-12-17T05:38:01.307Z,0.80
2018-12-17T05:40:28.296Z,0.90
2018-12-17T05:42:55.284Z,0.60
2018-12-17T05:45:22.330Z,0.40
2018-12-17T05:47:49.314Z,0.20
2018-12-17T05:50:16.317Z,0.10
2018-12-17T05:52:43.402Z,0.10
2018-12-17T05:55:10.555Z,0.20
2018-12-17T05:57:37.574Z,0.20
2018-12-17T06:00:05.441Z,0.10
2018-12-17T06:02:32.439Z,0.00
2018-12-17T06:04:59.452Z,0.00
2018-12-17T06:07:26.524Z,0.00
2018-12-17T06:09:53.522Z,0.00
2018-12-17T06:12:20.501Z,0.00
2018-12-17T06:14:47.506Z,-0.10
2018-12-17T06:17:14.504Z,-0.10
2018-12-17T06:19:41.480Z,0.00
2018-12-17T06:22:08.475Z,0.00
2018-12-17T06:24:35.457Z,0.00
2018-12-17T06:27:02.459Z,0.00
2018-12-17T06:29:35.408Z,0.00
2018-12-17T06:31:58.407Z,0.00
2018-12-17T06:34:25.393Z,0.10
2018-12-17T06:36:52.475Z,0.10
2018-12-17T06:39:19.459Z,0.10
2018-12-17T06:41:46.550Z,0.10
2018-12-17T06:44:13.532Z,0.20
2018-12-17T06:46:40.531Z,0.30
2018-12-17T06:49:07.511Z,0.30
2018-12-17T06:51:34.651Z,0.20
2018-12-17T06:54:01.661Z,0.10
2018-12-17T06:56:28.704Z,0.00
2018-12-17T06:58:55.709Z,-0.10
2018-12-17T07:01:22.709Z,0.10
2018-12-17T07:03:49.692Z,0.10
2018-12-17T07:06:16.692Z,0.10
2018-12-17T07:08:43.678Z,0.10
2018-12-17T07:11:10.665Z,0.10
2018-12-17T07:13:37.657Z,0.00
2018-12-17T07:16:04.650Z,0.10
2018-12-17T07:18:31.646Z,0.00
2018-12-17T07:20:58.625Z,0.00
2018-12-17T07:23:25.625Z,0.00
2018-12-17T07:25:52.604Z,0.00
2018-12-17T07:28:19.591Z,0.00
2018-12-17T07:30:46.585Z,-0.10
2018-12-17T07:33:13.578Z,-0.30
2018-12-17T07:35:40.587Z,-0.50
2018-12-17T07:38:07.572Z,-0.60
2018-12-17T07:40:34.633Z,-0.60
2018-12-17T07:43:01.628Z,-0.50
2018-12-17T07:45:29.257Z,-0.50
2018-12-17T07:47:56.265Z,-0.40
2018-12-17T07:50:23.310Z,-0.30
2018-12-17T07:52:50.368Z,-0.20
2018-12-17T07:55:17.368Z,-0.20
2018-12-17T07:57:44.402Z,-0.10
2018-12-17T08:00:11.696Z,-0.10
2018-12-17T08:02:38.677Z,-0.10
2018-12-17T08:05:05.663Z,0.00
2018-12-17T08:07:32.734Z,-0.10
2018-12-17T08:09:59.731Z,-0.10
2018-12-17T08:12:26.736Z,0.00
2018-12-17T08:14:53.806Z,0.00
2018-12-17T08:17:20.873Z,-0.10
2018-12-17T08:19:47.874Z,-0.10
2018-12-17T08:22:14.876Z,-0.10
2018-12-17T08:24:41.864Z,-0.10
2018-12-17T08:27:08.890Z,-0.10
2018-12-17T08:29:35.899Z,-0.10
2018-12-17T08:32:02.877Z,-0.10
2018-12-17T08:34:29.873Z,0.00
2018-12-17T08:36:56.867Z,0.10
2018-12-17T08:39:23.867Z,0.10
2018-12-17T08:41:50.931Z,0.20
2018-12-17T08:44:17.933Z,0.20
2018-12-17T08:46:44.930Z,0.30
2018-12-17T08:49:11.922Z,0.40
2018-12-17T08:51:38.943Z,0.50
2018-12-17T08:54:06.403Z,0.40
2018-12-17T08:56:33.397Z,0.40
2018-12-17T08:59:00.444Z,0.40
2018-12-17T09:01:27.454Z,0.50
2018-12-17T09:03:54.433Z,0.50
2018-12-17T09:06:21.430Z,0.50
2018-12-17T09:08:48.449Z,0.60
2018-12-17T09:11:15.429Z,0.70
2018-12-17T09:13:42.413Z,0.70
2018-12-17T09:16:09.409Z,0.80
2018-12-17T09:18:36.406Z,0.80
2018-12-17T09:21:03.435Z,0.80
2018-12-17T09:23:30.421Z,0.80
2018-12-17T09:25:57.422Z,0.90
2018-12-17T09:28:24.412Z,0.90
2018-12-17T09:30:51.404Z,0.90
2018-12-17T09:33:18.400Z,1.00
2018-12-17T09:35:45.422Z,1.10
2018-12-17T09:38:12.403Z,1.10
2018-12-17T09:40:39.401Z,1.00
2018-12-17T09:43:06.677Z,1.20
2018-12-17T09:45:33.673Z,1.40
2018-12-17T09:48:00.656Z,1.50
2018-12-17T09:50:27.650Z,1.60
2018-12-17T09:52:54.656Z,1.70
2018-12-17T09:55:21.717Z,2.00
2018-12-17T09:57:48.694Z,2.40
2018-12-17T10:00:15.752Z,2.60
2018-12-17T10:02:42.765Z,2.70
2018-12-17T10:05:09.768Z,2.70
2018-12-17T10:07:36.860Z,2.90
2018-12-17T10:10:04.383Z,3.00
2018-12-17T10:12:31.357Z,3.00
2018-12-17T10:14:58.346Z,3.00
2018-12-17T10:17:25.340Z,3.00
2018-12-17T10:19:52.325Z,3.10
2018-12-17T10:22:19.311Z,3.20
2018-12-17T10:24:46.291Z,3.30
2018-12-17T10:27:13.286Z,3.20
2018-12-17T10:29:40.280Z,3.40
2018-12-17T10:32:07.348Z,3.30
2018-12-17T10:34:34.418Z,3.30
2018-12-17T10:37:01.402Z,3.40
2018-12-17T10:39:28.497Z,3.40
2018-12-17T10:41:55.500Z,3.60
2018-12-17T10:44:22.491Z,3.60
2018-12-17T10:46:49.780Z,3.70
2018-12-17T10:49:16.827Z,3.80
2018-12-17T10:51:43.829Z,3.90
2018-12-17T10:54:10.911Z,3.90
2018-12-17T10:56:37.907Z,4.20
2018-12-17T10:59:04.907Z,4.30
2018-12-17T11:04:36.355Z,4.50
2018-12-17T11:07:03.891Z,4.60
2018-12-17T11:09:30.894Z,4.60
2018-12-17T11:11:57.910Z,4.30
2018-12-17T11:14:24.899Z,4.60
2018-12-17T11:16:51.931Z,4.60
2018-12-17T11:19:18.995Z,4.70
2018-12-17T11:21:46.073Z,5.00
2018-12-17T11:24:13.086Z,5.20
2018-12-17T11:26:40.126Z,5.50
2018-12-17T11:29:07.091Z,5.70
2018-12-17T11:31:34.103Z,5.80
2018-12-17T11:34:01.141Z,5.80
2018-12-17T11:36:28.144Z,5.70
2018-12-17T11:38:55.124Z,5.60
2018-12-17T11:41:22.214Z,5.70
2018-12-17T11:43:49.209Z,5.70
2018-12-17T11:46:16.206Z,5.60
2018-12-17T11:48:43.205Z,5.40
2018-12-17T11:51:10.203Z,5.40
2018-12-17T11:53:37.203Z,5.50
2018-12-17T11:56:04.542Z,5.70
2018-12-17T11:58:31.605Z,6.10
2018-12-17T12:00:59.413Z,6.10
2018-12-17T12:03:26.398Z,6.30
2018-12-17T12:05:53.485Z,6.30
2018-12-17T12:08:20.481Z,6.20
2018-12-17T12:10:47.469Z,6.00
2018-12-17T12:13:14.484Z,5.80
2018-12-17T12:15:41.480Z,5.60
2018-12-17T12:18:08.479Z,5.50
2018-12-17T12:20:35.462Z,5.30
2018-12-17T12:23:02.481Z,5.10
2018-12-17T12:25:29.542Z,5.00
2018-12-17T12:27:56.537Z,4.90
2018-12-17T12:30:23.547Z,4.80
2018-12-17T12:32:50.531Z,4.70
2018-12-17T12:35:17.544Z,4.60
2018-12-17T12:37:44.554Z,4.50
2018-12-17T12:40:11.857Z,4.40
2018-12-17T12:42:38.849Z,4.20
2018-12-17T12:45:05.948Z,4.10
2018-12-17T12:47:32.930Z,4.20
2018-12-17T12:49:59.924Z,4.20
2018-12-17T12:52:26.930Z,4.40
2018-12-17T12:54:53.910Z,4.60
2018-12-17T12:57:20.979Z,4.60
2018-12-17T12:59:48.001Z,4.60
2018-12-17T13:02:14.997Z,4.70
2018-12-17T13:04:41.987Z,4.70
2018-12-17T13:07:09.002Z,4.70
2018-12-17T13:09:36.694Z,4.70
2018-12-17T13:12:03.764Z,4.60
2018-12-17T13:14:30.762Z,4.60
2018-12-17T13:16:57.765Z,4.60
2018-12-17T13:19:24.760Z,4.60
2018-12-17T13:21:51.831Z,4.70
2018-12-17T13:24:18.835Z,4.70
2018-12-17T13:26:45.857Z,4.60
2018-12-17T13:29:12.854Z,4.50
2018-12-17T13:31:39.877Z,4.50
2018-12-17T13:34:07.615Z,4.40
2018-12-17T13:36:34.598Z,4.40
2018-12-17T13:39:01.666Z,4.30
2018-12-17T13:41:28.653Z,4.20
2018-12-17T13:43:55.639Z,4.10
2018-12-17T13:46:22.631Z,4.10
2018-12-17T13:48:49.711Z,4.10
2018-12-17T13:51:22.540Z,4.00
